Terminal Aerodrome Forecast
Issued by NWS Buffalo, NY

Home | Current Version | Previous Version | Text Only | Print | Product List | Glossary On
Versions: 1 2 3 4 5 6 7 8 9 10 11 12 13 14 15 16 17 18 19 20 21 22 23 24 25
000
FTUS41 KBUF 200312 AAA
TAFART
TAF AMD
KART 200312Z 2003/2024 01006KT P6SM OVC060
     FM200500 02006KT P6SM SCT035 SCT060
     FM201200 02006KT P6SM SKC
     FM202200 06004KT P6SM SKC=

USA.gov is the U.S. government's official web portal to all federal, state and local government web resources and services.